Time;durP1;ratioP1;P1;durP2;ratioP2;P2;SDS_P1;SDS_P2;PMS_P1;PMS_P2;Temp;Humidity;BMP_temperature;BMP_pressure;BME280_temperature;BME280_humidity;BME280_pressure;Samples;Min_cycle;Max_cycle;Signal;HPM_P1;HPM_P2
2022/01/15 00:01:41;;;;;;;68.13;36.17;;;5.60;99.90;;;;;;5034796;28;20221;-71
2022/01/15 00:04:07;;;;;;;71.27;38.23;;;5.70;99.90;;;;;;5034674;28;20174;-70
2022/01/15 00:06:33;;;;;;;67.57;37.27;;;5.70;99.90;;;;;;5034643;28;20182;-71
2022/01/15 00:08:58;;;;;;;70.03;35.97;;;5.70;99.90;;;;;;5034468;28;20638;-71
2022/01/15 00:11:24;;;;;;;68.70;36.07;;;5.70;99.90;;;;;;5034068;28;20170;-71
2022/01/15 00:14:12;;;;;;;64.13;34.07;;;5.70;99.90;;;;;;5033268;28;20170;-69
2022/01/15 00:16:50;;;;;;;60.37;33.67;;;5.50;99.90;;;;;;5034567;28;20196;-70
2022/01/15 00:19:18;;;;;;;70.73;35.73;;;5.50;99.90;;;;;;5034465;28;20215;-70
2022/01/15 00:21:44;;;;;;;59.97;34.20;;;5.40;99.90;;;;;;5034175;28;20244;-71
2022/01/15 00:24:10;;;;;;;61.57;35.33;;;5.40;99.90;;;;;;5034156;28;20170;-71
2022/01/15 00:26:36;;;;;;;70.10;35.90;;;5.30;99.90;;;;;;5033606;28;20719;-71
2022/01/15 00:29:02;;;;;;;59.27;32.17;;;5.40;99.90;;;;;;5034281;28;20215;-71
2022/01/15 00:31:28;;;;;;;61.73;34.43;;;5.50;99.90;;;;;;5034102;28;20659;-70
2022/01/15 00:33:54;;;;;;;64.30;32.07;;;5.50;99.90;;;;;;5034117;28;20178;-71
2022/01/15 00:36:20;;;;;;;63.13;33.77;;;5.30;99.90;;;;;;5033907;28;20174;-71
2022/01/15 00:38:46;;;;;;;61.20;34.77;;;5.20;99.90;;;;;;5033812;28;20174;-71
2022/01/15 00:41:12;;;;;;;65.37;35.70;;;5.10;99.90;;;;;;5033552;28;20291;-71
2022/01/15 00:43:38;;;;;;;67.33;33.47;;;5.20;99.90;;;;;;5033913;28;20192;-72
2022/01/15 00:46:04;;;;;;;56.77;30.73;;;5.20;99.90;;;;;;5033798;28;20182;-72
2022/01/15 00:48:29;;;;;;;61.73;32.70;;;5.10;99.90;;;;;;5033903;28;20190;-72
2022/01/15 00:50:55;;;;;;;72.73;34.63;;;5.10;99.90;;;;;;5033789;28;20235;-71
2022/01/15 00:53:20;;;;;;;58.73;31.70;;;5.20;99.90;;;;;;5033567;28;20170;-71
2022/01/15 00:55:46;;;;;;;60.93;31.40;;;5.10;99.90;;;;;;5033227;28;20252;-71
2022/01/15 00:58:13;;;;;;;59.80;31.77;;;5.00;99.90;;;;;;5033825;28;20182;-71
2022/01/15 01:00:39;;;;;;;61.17;33.27;;;5.00;99.90;;;;;;5032819;28;20209;-70
2022/01/15 01:03:05;;;;;;;53.17;29.70;;;5.00;99.90;;;;;;5033837;28;20200;-70
2022/01/15 01:05:31;;;;;;;58.63;32.77;;;5.00;99.90;;;;;;5033442;28;20271;-70
2022/01/15 01:07:57;;;;;;;58.77;32.10;;;4.90;99.90;;;;;;5033090;28;20170;-70
2022/01/15 01:13:26;;;;;;;63.10;33.97;;;5.00;99.90;;;;;;5034049;28;20181;-71
2022/01/15 01:20:04;;;;;;;62.10;35.23;;;5.10;99.90;;;;;;5033453;28;20180;-70
2022/01/15 01:22:20;;;;;;;60.10;32.23;;;5.10;99.90;;;;;;5033105;28;20214;-70
2022/01/15 01:24:14;;;;;;;59.10;33.73;;;5.10;99.90;;;;;;5032650;28;20165;-70
2022/01/15 01:26:46;;;;;;;65.23;34.20;;;5.10;99.90;;;;;;5032850;28;20217;-70
2022/01/15 01:29:36;;;;;;;69.83;35.17;;;5.20;99.90;;;;;;5033496;28;20162;-70
2022/01/15 01:32:11;;;;;;;64.13;33.90;;;5.10;99.90;;;;;;5033228;28;20185;-70
2022/01/15 01:34:40;;;;;;;59.73;35.07;;;5.20;99.90;;;;;;5033206;28;20711;-70
2022/01/15 01:39:50;;;;;;;56.90;30.87;;;5.20;99.90;;;;;;5032900;28;20178;-70
2022/01/15 01:45:06;;;;;;;63.97;35.10;;;5.00;99.90;;;;;;5033175;28;20174;-69
2022/01/15 01:47:39;;;;;;;58.90;32.57;;;5.00;99.90;;;;;;5033405;28;20229;-69
2022/01/15 01:50:09;;;;;;;64.83;36.83;;;5.10;99.90;;;;;;5032961;28;20170;-70
2022/01/15 01:52:35;;;;;;;63.40;36.17;;;5.10;99.90;;;;;;5032932;28;20174;-70
2022/01/15 01:55:01;;;;;;;63.73;36.40;;;5.20;99.90;;;;;;5032976;28;20173;-70
2022/01/15 01:57:27;;;;;;;70.37;37.23;;;5.30;99.90;;;;;;5033040;28;20245;-70
2022/01/15 01:59:52;;;;;;;72.30;37.47;;;5.30;99.90;;;;;;5032812;28;20265;-69
2022/01/15 02:02:18;;;;;;;64.07;37.60;;;5.20;99.90;;;;;;5032920;28;20681;-70
2022/01/15 02:04:44;;;;;;;69.47;36.33;;;5.10;99.90;;;;;;5032768;28;20207;-70
2022/01/15 02:07:09;;;;;;;70.63;38.93;;;5.10;99.90;;;;;;5032510;28;20633;-70
2022/01/15 02:09:35;;;;;;;70.07;39.37;;;5.10;99.90;;;;;;5033212;28;20166;-70
2022/01/15 02:12:01;;;;;;;70.87;38.17;;;5.10;99.90;;;;;;5034085;28;20178;-70
2022/01/15 02:14:28;;;;;;;72.10;39.47;;;5.10;99.90;;;;;;5036869;28;20170;-70
2022/01/15 02:16:55;;;;;;;77.10;41.13;;;5.00;99.90;;;;;;5036747;28;20170;-71
2022/01/15 02:19:20;;;;;;;72.80;39.47;;;5.00;99.90;;;;;;5035278;28;20542;-70
2022/01/15 02:24:15;;;;;;;72.40;35.90;;;4.70;99.90;;;;;;5036817;28;20201;-69
2022/01/15 02:26:40;;;;;;;79.30;40.33;;;4.50;99.90;;;;;;5036248;28;20268;-70
2022/01/15 02:29:08;;;;;;;80.07;39.90;;;4.60;99.90;;;;;;5036433;28;20176;-70
2022/01/15 02:31:35;;;;;;;78.37;40.90;;;4.60;99.90;;;;;;5036458;28;20626;-70
2022/01/15 02:34:03;;;;;;;81.23;41.13;;;4.60;99.90;;;;;;5036421;28;20208;-69
2022/01/15 02:36:31;;;;;;;83.70;41.97;;;4.70;99.90;;;;;;5035870;28;20162;-69
2022/01/15 02:38:58;;;;;;;76.17;39.27;;;4.70;99.90;;;;;;5036357;28;20550;-69
2022/01/15 02:41:36;;;;;;;80.50;40.03;;;4.60;99.90;;;;;;5035026;28;20210;-69
2022/01/15 02:44:05;;;;;;;73.77;39.80;;;4.50;99.90;;;;;;5036550;28;20544;-69
2022/01/15 02:48:58;;;;;;;73.17;35.13;;;4.40;99.90;;;;;;5036005;28;20193;-70
2022/01/15 02:51:26;;;;;;;80.47;40.13;;;4.40;99.90;;;;;;5035663;28;20253;-70
2022/01/15 02:53:55;;;;;;;81.23;39.23;;;4.30;99.90;;;;;;5036181;28;20169;-70
2022/01/15 02:56:36;;;;;;;84.63;41.47;;;4.30;99.90;;;;;;5035740;28;20529;-69
2022/01/15 02:59:04;;;;;;;88.57;43.30;;;4.30;99.90;;;;;;5036087;28;20186;-70
2022/01/15 03:01:31;;;;;;;81.73;42.93;;;4.40;99.90;;;;;;5035640;28;20355;-69
2022/01/15 03:03:56;;;;;;;95.30;44.87;;;4.40;99.90;;;;;;5035728;28;20646;-69
2022/01/15 03:06:22;;;;;;;88.80;43.07;;;4.40;99.90;;;;;;5035573;28;20178;-69
2022/01/15 03:08:49;;;;;;;93.27;45.80;;;4.50;99.90;;;;;;5035749;28;20248;-69
2022/01/15 03:11:16;;;;;;;93.10;42.27;;;4.50;99.90;;;;;;5035682;28;20185;-70
2022/01/15 03:13:43;;;;;;;92.10;45.87;;;4.50;99.90;;;;;;5034526;28;20178;-70
2022/01/15 03:16:14;;;;;;;98.03;46.10;;;4.40;99.90;;;;;;5035422;28;20181;-69
2022/01/15 03:18:41;;;;;;;95.73;45.37;;;4.40;99.90;;;;;;5035443;28;20232;-70
2022/01/15 03:21:06;;;;;;;93.13;44.83;;;4.30;99.90;;;;;;5035191;28;20222;-70
2022/01/15 03:23:32;;;;;;;103.00;43.63;;;4.30;99.90;;;;;;5034750;28;20166;-69
2022/01/15 03:25:57;;;;;;;110.90;49.13;;;4.20;99.90;;;;;;5033869;28;20750;-70
2022/01/15 03:28:23;;;;;;;104.30;48.47;;;4.30;99.90;;;;;;5035467;28;20196;-69
2022/01/15 03:30:49;;;;;;;111.67;50.33;;;4.30;99.90;;;;;;5035213;28;20664;-69
2022/01/15 03:33:15;;;;;;;111.33;49.80;;;4.40;99.90;;;;;;5035234;28;20178;-70
2022/01/15 03:35:41;;;;;;;114.93;49.07;;;4.40;99.90;;;;;;5034716;28;20239;-70
2022/01/15 03:38:07;;;;;;;109.40;47.33;;;4.40;99.90;;;;;;5035318;28;20178;-69
2022/01/15 03:40:34;;;;;;;109.87;50.47;;;4.40;99.90;;;;;;5035054;28;20263;-69
2022/01/15 03:43:00;;;;;;;107.93;47.77;;;4.50;99.90;;;;;;5035259;28;20178;-69
2022/01/15 03:45:27;;;;;;;111.83;47.47;;;4.50;99.90;;;;;;5033645;28;20174;-69
2022/01/15 03:47:52;;;;;;;111.03;48.17;;;4.50;99.90;;;;;;5034810;28;20198;-69
2022/01/15 03:50:19;;;;;;;109.37;48.47;;;4.50;99.90;;;;;;5034749;28;20173;-69
2022/01/15 03:52:45;;;;;;;101.00;45.63;;;4.40;99.90;;;;;;5035241;28;20177;-70
2022/01/15 03:55:13;;;;;;;101.93;45.80;;;4.40;99.90;;;;;;5034773;28;20646;-69
2022/01/15 03:57:40;;;;;;;108.60;46.57;;;4.40;99.90;;;;;;5034743;28;20173;-70
2022/01/15 04:00:09;;;;;;;105.63;46.30;;;4.40;99.90;;;;;;5034675;28;20197;-69
2022/01/15 04:02:35;;;;;;;107.77;48.70;;;4.40;99.90;;;;;;5034553;28;20173;-70
2022/01/15 04:05:00;;;;;;;110.87;48.27;;;4.50;99.90;;;;;;5034698;28;20652;-70
2022/01/15 04:07:26;;;;;;;95.83;41.17;;;4.40;99.90;;;;;;5034807;28;20261;-69
2022/01/15 04:09:52;;;;;;;102.13;42.07;;;4.20;99.90;;;;;;5034533;28;20167;-70
2022/01/15 04:12:17;;;;;;;113.73;49.73;;;4.10;99.90;;;;;;5034510;28;20201;-70
2022/01/15 04:14:43;;;;;;;108.97;45.70;;;4.10;99.90;;;;;;5034238;28;20167;-69
2022/01/15 04:17:08;;;;;;;99.80;43.23;;;4.10;99.90;;;;;;5034010;28;20174;-69
2022/01/15 04:19:35;;;;;;;112.73;46.50;;;4.00;99.90;;;;;;5034696;28;20170;-69
2022/01/15 04:22:01;;;;;;;108.73;45.57;;;4.10;99.90;;;;;;5034270;28;20213;-70
2022/01/15 04:24:27;;;;;;;103.80;41.70;;;4.10;99.90;;;;;;5034587;28;20174;-69
2022/01/15 04:26:53;;;;;;;109.40;43.23;;;4.00;99.90;;;;;;5034020;28;20230;-69
2022/01/15 04:29:20;;;;;;;104.97;44.37;;;4.10;99.90;;;;;;5034052;28;20701;-69
2022/01/15 04:31:47;;;;;;;109.43;43.73;;;4.00;99.90;;;;;;5033663;28;20184;-69
2022/01/15 04:34:22;;;;;;;109.23;44.57;;;4.00;99.90;;;;;;5033850;28;20170;-69
2022/01/15 04:36:50;;;;;;;110.07;43.37;;;4.10;99.90;;;;;;5034239;28;20173;-70
2022/01/15 04:39:16;;;;;;;107.33;43.57;;;4.10;99.90;;;;;;5032896;28;20178;-69
2022/01/15 04:41:42;;;;;;;114.70;48.37;;;4.10;99.90;;;;;;5034147;28;20202;-69
2022/01/15 04:44:07;;;;;;;100.97;41.20;;;4.00;99.90;;;;;;5033792;28;20525;-69
2022/01/15 04:46:34;;;;;;;100.77;43.90;;;4.00;99.90;;;;;;5033270;28;20197;-69
2022/01/15 04:49:00;;;;;;;107.47;44.70;;;3.80;99.90;;;;;;5032370;28;20240;-69
2022/01/15 04:51:26;;;;;;;112.90;46.43;;;3.70;99.90;;;;;;5033765;28;20182;-69
2022/01/15 04:53:51;;;;;;;111.50;42.47;;;3.60;99.90;;;;;;5033705;28;20162;-70
2022/01/15 04:56:17;;;;;;;113.70;45.40;;;3.60;99.90;;;;;;5033531;28;20182;-68
2022/01/15 04:58:43;;;;;;;113.40;45.30;;;3.60;99.90;;;;;;5033322;28;20178;-69
2022/01/15 05:01:08;;;;;;;111.97;45.73;;;3.70;99.90;;;;;;5032739;28;20607;-69
2022/01/15 05:03:34;;;;;;;104.27;41.97;;;3.70;99.90;;;;;;5033706;28;20679;-69
2022/01/15 05:06:00;;;;;;;115.73;45.93;;;3.70;99.90;;;;;;5033470;28;20185;-69
2022/01/15 05:08:26;;;;;;;112.97;46.13;;;3.70;99.90;;;;;;5033532;28;20642;-69
2022/01/15 05:10:53;;;;;;;121.33;46.90;;;3.80;99.90;;;;;;5033405;28;20182;-69
2022/01/15 05:13:23;;;;;;;115.43;46.40;;;3.80;99.90;;;;;;5032901;28;20177;-69
2022/01/15 05:15:49;;;;;;;107.70;42.60;;;3.80;99.90;;;;;;5032712;28;20197;-69
2022/01/15 05:18:16;;;;;;;116.60;40.47;;;3.60;99.90;;;;;;5033537;28;20174;-68
2022/01/15 05:20:44;;;;;;;102.63;36.63;;;3.40;99.90;;;;;;5033059;28;20228;-70
2022/01/15 05:23:10;;;;;;;87.77;30.37;;;3.30;99.90;;;;;;5031596;28;20242;-69
2022/01/15 05:25:35;;;;;;;122.13;44.37;;;3.20;99.90;;;;;;5033070;28;20266;-70
2022/01/15 05:28:01;;;;;;;124.87;45.87;;;3.20;99.90;;;;;;5032802;28;20188;-69
2022/01/15 05:30:30;;;;;;;123.07;44.03;;;3.20;99.90;;;;;;5032563;28;20185;-69
2022/01/15 05:32:56;;;;;;;124.20;44.60;;;3.10;99.90;;;;;;5033357;28;20259;-69
2022/01/15 05:35:26;;;;;;;119.93;41.10;;;3.10;99.90;;;;;;5032893;28;20276;-69
2022/01/15 05:37:52;;;;;;;127.73;44.67;;;3.10;99.90;;;;;;5033293;28;20186;-70
2022/01/15 05:40:18;;;;;;;127.60;46.03;;;3.10;99.90;;;;;;5032852;28;20217;-69
2022/01/15 05:42:44;;;;;;;124.93;43.80;;;3.10;99.90;;;;;;5032520;28;20170;-69
2022/01/15 05:45:10;;;;;;;129.37;42.07;;;3.00;99.90;;;;;;5032363;28;20727;-69
2022/01/15 05:47:36;;;;;;;132.33;45.83;;;3.10;99.90;;;;;;5036937;28;20763;-69
2022/01/15 05:50:02;;;;;;;136.00;47.17;;;3.10;99.90;;;;;;5039310;28;20193;-69
2022/01/15 05:52:28;;;;;;;125.63;43.37;;;3.10;99.90;;;;;;5039511;28;20648;-69
2022/01/15 05:54:53;;;;;;;123.63;43.37;;;3.10;99.90;;;;;;5039210;28;20175;-70
2022/01/15 05:57:19;;;;;;;128.90;41.00;;;3.00;99.90;;;;;;5038627;28;20178;-70
2022/01/15 05:59:45;;;;;;;129.67;40.33;;;3.00;99.90;;;;;;5038838;28;20190;-70
2022/01/15 06:02:11;;;;;;;135.67;41.83;;;3.00;99.90;;;;;;5039248;28;20689;-69
2022/01/15 06:04:36;;;;;;;141.20;46.30;;;2.90;99.90;;;;;;5039330;28;20174;-70
2022/01/15 06:07:02;;;;;;;140.90;45.87;;;3.00;99.90;;;;;;5039347;28;20597;-70
2022/01/15 06:09:28;;;;;;;127.00;43.60;;;3.00;99.90;;;;;;5038887;28;20265;-70
2022/01/15 06:11:56;;;;;;;123.93;44.00;;;3.10;99.90;;;;;;5038801;28;20197;-69
2022/01/15 06:14:22;;;;;;;126.30;43.50;;;3.20;99.90;;;;;;5038892;28;20386;-69
2022/01/15 06:16:47;;;;;;;120.20;38.47;;;3.30;99.90;;;;;;5039073;28;20180;-69
2022/01/15 06:19:13;;;;;;;122.63;43.40;;;3.30;99.90;;;;;;5039336;28;20260;-69
2022/01/15 06:21:39;;;;;;;122.70;42.53;;;3.40;99.90;;;;;;5039010;28;20209;-70
2022/01/15 06:24:05;;;;;;;137.67;45.50;;;3.50;99.90;;;;;;5039407;28;20572;-69
2022/01/15 06:26:30;;;;;;;132.50;44.80;;;3.50;99.90;;;;;;5037971;28;20225;-69
2022/01/15 06:28:56;;;;;;;115.40;41.03;;;3.60;99.90;;;;;;5038623;28;20170;-69
2022/01/15 06:31:22;;;;;;;109.63;39.73;;;3.70;99.90;;;;;;5038955;28;20236;-70
2022/01/15 06:33:48;;;;;;;111.90;41.47;;;3.70;99.90;;;;;;5039238;28;20606;-71
2022/01/15 06:36:13;;;;;;;108.60;38.03;;;3.70;99.90;;;;;;5038944;28;20174;-70
2022/01/15 06:38:39;;;;;;;105.80;37.77;;;3.70;99.90;;;;;;5039252;28;20174;-70
2022/01/15 06:41:05;;;;;;;106.80;40.20;;;3.80;99.90;;;;;;5038581;28;20682;-69
2022/01/15 06:43:30;;;;;;;108.57;39.40;;;3.70;99.90;;;;;;5037995;28;20626;-70
2022/01/15 06:45:56;;;;;;;107.20;37.87;;;3.80;99.90;;;;;;5038922;28;20178;-70
2022/01/15 06:48:22;;;;;;;111.23;39.13;;;3.70;99.90;;;;;;5038620;28;20202;-70
2022/01/15 06:50:47;;;;;;;104.80;36.87;;;3.70;99.90;;;;;;5038852;28;20181;-70
2022/01/15 06:53:13;;;;;;;101.87;38.63;;;3.70;99.90;;;;;;5038899;28;20525;-69
2022/01/15 06:55:39;;;;;;;94.10;32.03;;;3.50;99.90;;;;;;5038427;28;20166;-69
2022/01/15 06:58:05;;;;;;;108.77;39.83;;;3.20;99.90;;;;;;5036201;28;20189;-71
2022/01/15 07:00:30;;;;;;;105.67;38.20;;;3.20;99.90;;;;;;5035195;28;20202;-69
2022/01/15 07:03:00;;;;;;;96.10;35.97;;;3.30;99.90;;;;;;5036058;28;20316;-69
2022/01/15 07:05:26;;;;;;;104.17;37.53;;;3.40;99.90;;;;;;5035171;28;20185;-70
2022/01/15 07:07:52;;;;;;;109.33;38.43;;;3.40;99.90;;;;;;5034214;28;20181;-69
2022/01/15 07:10:18;;;;;;;95.47;38.93;;;3.40;99.90;;;;;;5035273;28;20162;-70
2022/01/15 07:12:44;;;;;;;90.03;32.63;;;3.50;99.90;;;;;;5035043;28;20174;-69
2022/01/15 07:15:11;;;;;;;99.03;35.60;;;3.30;99.90;;;;;;5035433;28;20648;-70
2022/01/15 07:17:44;;;;;;;79.13;27.43;;;3.10;99.90;;;;;;5035443;28;20204;-69
2022/01/15 07:20:12;;;;;;;87.77;29.73;;;2.80;99.90;;;;;;5035197;28;20173;-69
2022/01/15 07:22:39;;;;;;;87.40;31.93;;;2.70;99.90;;;;;;5034642;28;20188;-69
2022/01/15 07:25:06;;;;;;;105.67;37.33;;;2.70;99.90;;;;;;5035013;28;20170;-70
2022/01/15 07:27:32;;;;;;;100.87;36.00;;;2.70;99.90;;;;;;5034432;28;20192;-70
2022/01/15 07:29:58;;;;;;;104.93;36.73;;;2.70;99.90;;;;;;5034830;28;20176;-70
2022/01/15 07:32:23;;;;;;;109.30;38.10;;;2.70;99.90;;;;;;5035311;28;20211;-70
2022/01/15 07:34:49;;;;;;;111.23;36.67;;;2.70;99.90;;;;;;5035518;28;20264;-70
2022/01/15 07:37:14;;;;;;;82.67;25.90;;;2.90;99.90;;;;;;5035096;28;20634;-69
2022/01/15 07:39:42;;;;;;;96.50;34.97;;;2.90;99.90;;;;;;5034907;28;20190;-70
2022/01/15 07:42:09;;;;;;;95.20;35.53;;;2.90;99.90;;;;;;5034089;28;20229;-70
2022/01/15 07:44:35;;;;;;;78.57;29.93;;;2.80;99.90;;;;;;5034898;28;20173;-70
2022/01/15 07:47:01;;;;;;;89.80;32.43;;;2.70;99.90;;;;;;5034532;28;20659;-70
2022/01/15 07:49:26;;;;;;;87.27;32.23;;;2.80;99.90;;;;;;5034642;28;20174;-70
2022/01/15 07:51:52;;;;;;;82.27;33.80;;;2.80;99.90;;;;;;5034876;28;20203;-70
2022/01/15 07:54:17;;;;;;;84.07;35.93;;;2.80;99.90;;;;;;5034420;28;20673;-69
2022/01/15 07:56:43;;;;;;;80.00;33.37;;;2.90;99.90;;;;;;5033893;28;20177;-69
2022/01/15 07:59:09;;;;;;;74.10;33.13;;;3.00;99.90;;;;;;5033191;28;20174;-70
2022/01/15 08:01:34;;;;;;;73.90;32.70;;;2.90;99.90;;;;;;5034454;28;20210;-69
2022/01/15 08:04:02;;;;;;;68.23;31.53;;;2.90;99.90;;;;;;5034660;28;20614;-69
2022/01/15 08:06:28;;;;;;;70.27;29.90;;;2.80;99.90;;;;;;5034027;28;20185;-70
2022/01/15 08:08:53;;;;;;;70.27;31.77;;;2.70;99.90;;;;;;5033806;28;20188;-69
2022/01/15 08:11:19;;;;;;;83.77;35.13;;;2.90;99.90;;;;;;5033687;28;20213;-69
2022/01/15 08:13:44;;;;;;;66.97;30.47;;;3.00;99.90;;;;;;5034470;28;20180;-71
2022/01/15 08:16:10;;;;;;;72.13;30.00;;;2.90;99.90;;;;;;5033955;28;20608;-70
2022/01/15 08:18:36;;;;;;;78.63;32.53;;;2.70;99.90;;;;;;5034324;28;20185;-70
2022/01/15 08:21:03;;;;;;;77.90;33.73;;;2.70;99.90;;;;;;5033571;28;20262;-68
2022/01/15 08:23:29;;;;;;;69.27;31.33;;;2.60;99.90;;;;;;5034135;28;20711;-71
2022/01/15 08:25:55;;;;;;;70.40;30.67;;;2.70;99.90;;;;;;5033476;28;20235;-70
2022/01/15 08:28:21;;;;;;;71.07;32.97;;;2.70;99.90;;;;;;5032505;28;20196;-70
2022/01/15 08:30:46;;;;;;;71.13;32.13;;;2.70;99.90;;;;;;5033562;28;20659;-70
2022/01/15 08:33:12;;;;;;;72.47;31.87;;;2.70;99.90;;;;;;5032826;28;20186;-69
2022/01/15 08:35:38;;;;;;;70.10;32.40;;;2.80;99.90;;;;;;5033387;28;20176;-70
2022/01/15 08:38:04;;;;;;;58.67;29.47;;;2.90;99.90;;;;;;5033882;28;20231;-70
2022/01/15 08:40:32;;;;;;;54.33;27.40;;;2.90;99.90;;;;;;5033076;28;20684;-69
2022/01/15 08:42:58;;;;;;;53.63;28.40;;;2.80;99.90;;;;;;5033827;28;20322;-70
2022/01/15 08:45:26;;;;;;;56.03;26.93;;;2.90;99.90;;;;;;5032942;28;20178;-70
2022/01/15 08:47:51;;;;;;;50.83;26.87;;;3.00;99.90;;;;;;5033574;28;20202;-70
2022/01/15 08:50:17;;;;;;;50.53;26.87;;;3.10;99.90;;;;;;5033269;28;20262;-69
2022/01/15 08:52:43;;;;;;;50.87;26.87;;;3.00;99.90;;;;;;5032906;28;20192;-69
2022/01/15 08:55:09;;;;;;;49.20;26.70;;;3.00;99.90;;;;;;5032909;28;20187;-70
2022/01/15 08:57:35;;;;;;;46.70;26.00;;;3.10;99.90;;;;;;5032059;28;20180;-71
2022/01/15 09:00:03;;;;;;;46.17;23.57;;;3.00;99.90;;;;;;5032759;28;20190;-70
2022/01/15 09:02:29;;;;;;;46.90;24.27;;;2.90;99.90;;;;;;5033399;28;20181;-69
2022/01/15 09:04:54;;;;;;;46.27;23.47;;;2.90;99.90;;;;;;5032842;28;20580;-70
2022/01/15 09:07:20;;;;;;;44.43;24.93;;;2.90;99.90;;;;;;5032595;28;20172;-69
2022/01/15 09:09:46;;;;;;;46.63;24.87;;;3.00;99.90;;;;;;5031568;28;20275;-69
2022/01/15 09:12:11;;;;;;;44.97;24.30;;;2.90;99.90;;;;;;5032695;28;20261;-70
2022/01/15 09:14:38;;;;;;;47.40;24.20;;;3.00;99.90;;;;;;5032806;28;20660;-69
2022/01/15 09:17:04;;;;;;;47.50;24.00;;;3.00;99.90;;;;;;5033097;28;20256;-69
2022/01/15 09:19:29;;;;;;;43.60;23.17;;;3.00;99.90;;;;;;5032965;28;20260;-70
2022/01/15 09:21:55;;;;;;;43.43;23.30;;;2.90;99.90;;;;;;5031283;28;20238;-70
2022/01/15 09:24:21;;;;;;;46.23;25.57;;;2.90;99.90;;;;;;5032899;28;20209;-70
2022/01/15 09:27:02;;;;;;;45.90;25.23;;;3.10;99.90;;;;;;5032574;28;20233;-70
2022/01/15 09:32:13;;;;;;;36.70;21.50;;;3.60;99.90;;;;;;5032930;28;20188;-69
2022/01/15 09:34:39;;;;;;;37.27;22.27;;;4.00;99.90;;;;;;5032576;28;20178;-69
2022/01/15 09:37:06;;;;;;;37.53;22.40;;;4.30;99.90;;;;;;5032401;28;20178;-69
2022/01/15 09:39:33;;;;;;;36.10;21.70;;;4.50;99.90;;;;;;5032864;28;20185;-70
2022/01/15 09:41:59;;;;;;;34.87;21.97;;;4.90;99.90;;;;;;5032426;28;20283;-70
2022/01/15 09:44:26;;;;;;;34.67;21.40;;;5.20;99.90;;;;;;5032625;28;20252;-70
2022/01/15 09:46:52;;;;;;;29.57;19.10;;;5.30;99.90;;;;;;5032465;28;20189;-70
2022/01/15 09:49:23;;;;;;;35.40;21.37;;;5.30;99.90;;;;;;5032439;28;20185;-70
2022/01/15 09:51:49;;;;;;;34.40;20.60;;;5.00;99.90;;;;;;5032190;28;20177;-70
2022/01/15 09:54:17;;;;;;;34.30;21.50;;;5.00;99.90;;;;;;5032071;28;20257;-70
2022/01/15 09:56:43;;;;;;;33.17;21.07;;;5.20;99.90;;;;;;5032759;28;20174;-70
2022/01/15 09:59:10;;;;;;;36.03;21.10;;;5.20;99.90;;;;;;5032421;28;20191;-71
2022/01/15 10:01:36;;;;;;;31.37;20.00;;;5.80;99.90;;;;;;5031895;28;20205;-71
2022/01/15 10:04:01;;;;;;;31.27;21.00;;;6.30;99.90;;;;;;5032549;28;20216;-71
2022/01/15 10:06:27;;;;;;;31.17;21.27;;;7.20;99.90;;;;;;5031488;28;20200;-71
2022/01/15 10:09:07;;;;;;;27.47;18.33;;;7.90;99.90;;;;;;5032467;28;20174;-71
2022/01/15 10:11:48;;;;;;;26.90;18.20;;;8.30;99.90;;;;;;5031794;28;20249;-71
2022/01/15 10:14:37;;;;;;;29.50;19.47;;;8.60;99.90;;;;;;5032060;28;20178;-71
2022/01/15 10:17:24;;;;;;;25.77;17.97;;;9.00;99.90;;;;;;5032076;28;20535;-70
2022/01/15 10:19:51;;;;;;;29.80;19.73;;;9.00;99.90;;;;;;5031553;28;20222;-71
2022/01/15 10:22:20;;;;;;;25.30;18.97;;;9.40;99.90;;;;;;5031816;28;20221;-72
2022/01/15 10:24:58;;;;;;;26.17;19.33;;;9.70;99.90;;;;;;5032825;28;20174;-72
2022/01/15 10:27:34;;;;;;;26.80;19.77;;;10.10;99.90;;;;;;5031945;28;20184;-71
2022/01/15 10:29:59;;;;;;;26.90;19.67;;;10.40;99.20;;;;;;5032483;28;20175;-71
2022/01/15 10:32:28;;;;;;;27.37;20.23;;;10.50;98.30;;;;;;5032074;28;20541;-72
2022/01/15 10:34:53;;;;;;;27.63;20.77;;;10.80;98.00;;;;;;5035606;28;20248;-71
2022/01/15 10:37:26;;;;;;;27.63;20.63;;;10.70;97.90;;;;;;5035855;28;20309;-71
2022/01/15 10:40:07;;;;;;;25.43;19.23;;;11.10;97.20;;;;;;5035710;28;20176;-71
2022/01/15 10:42:34;;;;;;;26.67;20.23;;;11.50;96.60;;;;;;5035884;28;20712;-73
2022/01/15 10:45:13;;;;;;;26.13;20.30;;;12.00;95.60;;;;;;5035360;28;20235;-73
2022/01/15 10:47:49;;;;;;;27.83;20.63;;;12.60;94.00;;;;;;5035736;28;20599;-72
2022/01/15 10:50:20;;;;;;;23.83;18.70;;;12.50;92.80;;;;;;5035536;28;20178;-72
2022/01/15 10:52:45;;;;;;;21.57;18.50;;;12.50;92.40;;;;;;5035741;28;20181;-72
2022/01/15 10:55:13;;;;;;;23.07;18.67;;;12.60;91.90;;;;;;5034615;28;20174;-72
2022/01/15 10:58:04;;;;;;;22.43;18.20;;;12.90;91.30;;;;;;5035578;28;20177;-71
2022/01/15 11:00:51;;;;;;;22.63;18.47;;;13.50;90.00;;;;;;5035337;28;20649;-72
2022/01/15 11:03:17;;;;;;;24.83;19.07;;;12.80;89.60;;;;;;5035047;28;20173;-71
2022/01/15 11:05:51;;;;;;;23.07;18.43;;;13.00;90.80;;;;;;5034640;28;20177;-71
2022/01/15 11:08:26;;;;;;;24.50;18.43;;;13.30;88.50;;;;;;5035393;28;20181;-73
2022/01/15 11:11:03;;;;;;;21.73;18.40;;;12.90;90.00;;;;;;5034848;28;20570;-71
2022/01/15 11:13:31;;;;;;;23.60;18.60;;;11.90;90.90;;;;;;5035375;28;20170;-72
2022/01/15 11:16:04;;;;;;;24.20;19.30;;;12.30;91.90;;;;;;5034780;28;20684;-72
2022/01/15 11:18:32;;;;;;;26.00;18.80;;;12.80;90.10;;;;;;5034516;28;20166;-71
2022/01/15 11:21:09;;;;;;;25.20;19.77;;;13.20;89.50;;;;;;5034741;28;20214;-72
2022/01/15 11:23:36;;;;;;;23.57;19.20;;;13.40;88.70;;;;;;5035232;28;20248;-71
2022/01/15 11:26:08;;;;;;;25.07;19.63;;;13.20;88.50;;;;;;5034179;28;20256;-71
2022/01/15 11:28:34;;;;;;;23.83;19.67;;;13.60;88.40;;;;;;5034795;28;20644;-71
2022/01/15 11:31:08;;;;;;;24.23;19.67;;;14.00;84.40;;;;;;5034051;28;20182;-71
2022/01/15 11:33:41;;;;;;;24.07;19.47;;;14.50;1.00;;;;;;5034650;28;20232;-72
2022/01/15 11:36:08;;;;;;;23.47;19.93;;;14.40;1.00;;;;;;5034650;28;20174;-71
2022/01/15 11:38:39;;;;;;;23.27;19.35;;;14.30;99.90;;;;;;5035239;28;20637;-71
2022/01/15 11:41:05;;;;;;;23.60;19.20;;;15.00;99.90;;;;;;5034302;28;20446;-71
2022/01/15 11:43:31;;;;;;;25.30;18.98;;;15.00;99.90;;;;;;5034640;28;20269;-72
2022/01/15 11:46:28;;;;;;;26.42;20.23;;;15.50;99.90;;;;;;5033504;28;20269;-72
2022/01/15 11:49:35;;;;;;;28.65;20.40;;;15.90;99.90;;;;;;5033904;28;20193;-72
2022/01/15 11:52:08;;;;;;;27.00;21.00;;;15.50;99.90;;;;;;5033929;28;20217;-72
2022/01/15 11:54:35;;;;;;;27.30;20.08;;;15.30;99.90;;;;;;5034266;28;20232;-73
2022/01/15 11:57:02;;;;;;;23.52;19.63;;;15.70;99.90;;;;;;5033595;28;20192;-72
2022/01/15 11:59:30;;;;;;;24.00;19.23;;;15.20;99.90;;;;;;5033893;28;20170;-71
2022/01/15 12:02:01;;;;;;;26.35;22.30;;;15.40;99.90;;;;;;5034005;28;20712;-71
2022/01/15 12:04:37;;;;;;;23.25;17.90;;;14.90;99.90;;;;;;5034117;28;20585;-71
2022/01/15 12:07:05;;;;;;;20.63;17.55;;;15.30;99.90;;;;;;5033583;28;20227;-72
2022/01/15 12:09:40;;;;;;;22.40;17.17;;;15.80;99.90;;;;;;5034162;28;20638;-71
2022/01/15 12:12:17;;;;;;;21.00;17.00;;;15.70;99.90;;;;;;5034001;28;20185;-71
2022/01/15 12:14:49;;;;;;;25.70;16.55;;;15.80;99.90;;;;;;5032541;28;20605;-71
2022/01/15 12:17:27;;;;;;;21.25;16.38;;;15.80;99.90;;;;;;5033517;28;20170;-71
2022/01/15 12:19:53;;;;;;;21.05;17.35;;;15.30;99.90;;;;;;5033462;28;20248;-71
2022/01/15 12:22:39;;;;;;;21.52;16.05;;;14.90;99.90;;;;;;5032894;28;20677;-71
2022/01/15 12:25:06;;;;;;;19.08;16.15;;;14.70;99.90;;;;;;5033565;28;20224;-72
2022/01/15 12:27:33;;;;;;;17.90;14.65;;;14.70;99.90;;;;;;5033457;28;20315;-71
2022/01/15 12:30:13;;;;;;;16.27;13.57;;;14.10;99.90;;;;;;5033996;28;20182;-71
2022/01/15 12:32:42;;;;;;;20.05;13.60;;;14.10;99.90;;;;;;5033538;28;20166;-72
2022/01/15 12:35:20;;;;;;;21.73;15.20;;;13.70;99.90;;;;;;5033384;28;20246;-71
2022/01/15 12:38:10;;;;;;;24.37;15.60;;;13.50;99.90;;;;;;5033497;28;20276;-71
2022/01/15 12:40:39;;;;;;;17.47;12.87;;;13.60;99.90;;;;;;5033076;28;20272;-71
2022/01/15 12:43:11;;;;;;;18.90;13.83;;;13.20;99.90;;;;;;5033114;28;20170;-71
2022/01/15 12:45:38;;;;;;;21.83;16.23;;;12.70;99.90;;;;;;5032737;28;20173;-71
2022/01/15 12:48:07;;;;;;;17.63;15.13;;;12.60;99.90;;;;;;5032936;28;20229;-72
2022/01/15 12:50:51;;;;;;;19.80;14.37;;;12.40;99.90;;;;;;5033125;28;20174;-72
2022/01/15 12:53:19;;;;;;;20.00;14.10;;;11.60;1.00;;;;;;5033129;28;20177;-71
2022/01/15 12:55:45;;;;;;;21.70;17.17;;;11.30;1.00;;;;;;5032189;28;20502;-71
2022/01/15 12:58:15;;;;;;;19.07;15.00;;;10.70;1.00;;;;;;5032577;28;20192;-71